Time;durP1;ratioP1;P1;durP2;ratioP2;P2;SDS_P1;SDS_P2;PMS_P1;PMS_P2;Temp;Humidity;BMP_temperature;BMP_pressure;BME280_temperature;BME280_humidity;BME280_pressure;Samples;Min_cycle;Max_cycle;Signal;HPM_P1;HPM_P2
2022/01/25 00:26:18;;;;;;;56.28;45.80;;;;;;;3.30;100.00;103435.28;5112533;28;20081;-52
2022/01/25 00:28:49;;;;;;;55.55;46.00;;;;;;;3.18;100.00;103416.63;5112150;28;20042;-50
2022/01/25 00:31:15;;;;;;;56.28;45.97;;;;;;;3.30;100.00;103448.31;5112431;28;20058;-51
2022/01/25 00:33:45;;;;;;;60.15;46.95;;;;;;;3.21;100.00;103422.81;5094205;28;20551;-53
2022/01/25 00:36:13;;;;;;;60.85;48.47;;;;;;;3.30;100.00;103443.09;5112074;28;20058;-54
2022/01/25 00:38:39;;;;;;;60.47;48.30;;;;;;;3.30;100.00;103440.50;5112364;28;20027;-51
2022/01/25 00:41:04;;;;;;;57.20;46.08;;;;;;;3.33;100.00;103445.81;5112306;28;20436;-49
2022/01/25 00:43:30;;;;;;;59.00;48.60;;;;;;;3.30;100.00;103438.78;5113970;28;20043;-52
2022/01/25 00:46:00;;;;;;;60.60;48.45;;;;;;;2.82;100.00;103349.31;5116183;28;20054;-51
2022/01/25 00:53:57;;;;;;;60.58;48.42;;;;;;;3.34;100.00;103430.28;5116215;28;20101;-52
2022/01/25 00:56:26;;;;;;;59.38;48.78;;;;;;;3.30;100.00;103430.97;5116232;28;20028;-52
2022/01/25 00:58:52;;;;;;;61.15;48.78;;;;;;;3.25;100.00;103419.50;5115994;28;20039;-51
2022/01/25 01:01:19;;;;;;;59.15;48.38;;;;;;;2.81;100.00;103347.53;5116203;28;20089;-52
2022/01/25 01:03:44;;;;;;;60.53;49.03;;;;;;;2.89;100.00;103358.22;5116024;28;20067;-55
2022/01/25 01:06:10;;;;;;;60.28;48.55;;;;;;;3.17;100.00;103409.63;5115744;28;20051;-53
2022/01/25 01:08:35;;;;;;;62.28;50.38;;;;;;;3.20;100.00;103417.56;5116130;28;20458;-54
2022/01/25 01:11:04;;;;;;;60.30;48.05;;;;;;;3.22;100.00;103410.69;5115298;28;20027;-52
2022/01/25 01:40:25;;;;;;;63.08;50.05;;;;;;;3.11;100.00;103398.97;5116230;28;20469;-54
2022/01/25 01:43:05;;;;;;;62.70;50.50;;;;;;;3.21;100.00;103430.63;5113823;28;20050;-51
2022/01/25 01:46:04;;;;;;;61.53;48.80;;;;;;;3.12;100.00;103417.28;5115522;28;20054;-53
2022/01/25 01:48:32;;;;;;;63.17;48.78;;;;;;;3.00;100.00;103382.97;5114461;28;20040;-51
2022/01/25 01:51:06;;;;;;;66.82;49.72;;;;;;;2.84;100.00;103351.97;5115143;28;20504;-56
2022/01/25 01:53:33;;;;;;;65.25;49.28;;;;;;;3.18;100.00;103414.03;5115181;28;20031;-53
2022/01/25 01:55:59;;;;;;;62.95;50.08;;;;;;;3.13;100.00;103407.72;5112756;28;20064;-51
2022/01/25 01:58:24;;;;;;;62.22;49.38;;;;;;;3.18;100.00;103409.69;5115304;28;20027;-52
2022/01/25 02:00:50;;;;;;;62.67;49.35;;;;;;;3.16;100.00;103415.66;5115212;28;20122;-53
2022/01/25 02:03:16;;;;;;;63.15;49.92;;;;;;;2.71;100.00;103332.41;5114870;28;20031;-53
2022/01/25 02:05:42;;;;;;;61.25;48.97;;;;;;;2.80;100.00;103347.50;5114732;28;20035;-50
2022/01/25 02:08:08;;;;;;;62.15;49.97;;;;;;;2.75;100.00;103316.09;5113755;28;20039;-52
2022/01/25 02:10:33;;;;;;;61.13;49.00;;;;;;;3.19;100.00;103400.16;5113552;28;20028;-53
2022/01/25 02:12:59;;;;;;;62.97;48.75;;;;;;;3.11;100.00;103383.38;5114601;28;20383;-52
2022/01/25 02:15:26;;;;;;;63.72;50.03;;;;;;;3.23;100.00;103409.88;5114684;28;20113;-54
2022/01/25 02:23:21;;;;;;;64.28;50.08;;;;;;;3.21;100.00;103403.72;5112614;28;20142;-51
2022/01/25 02:25:48;;;;;;;64.78;50.97;;;;;;;3.20;100.00;103387.22;5114478;28;20020;-55
2022/01/25 02:28:14;;;;;;;65.30;51.60;;;;;;;3.23;100.00;103387.34;5113083;28;20027;-56
2022/01/25 02:30:40;;;;;;;67.60;51.80;;;;;;;3.14;100.00;103367.88;5114011;28;20035;-52
2022/01/25 02:33:06;;;;;;;66.35;50.85;;;;;;;3.24;100.00;103390.84;5114320;28;20028;-55
2022/01/25 02:35:31;;;;;;;64.85;50.53;;;;;;;3.20;100.00;103379.41;5114530;28;20103;-54
2022/01/25 02:37:57;;;;;;;68.30;53.22;;;;;;;2.80;100.00;103308.47;5114408;28;20555;-52
2022/01/25 02:40:22;;;;;;;69.22;51.28;;;;;;;3.05;100.00;103347.59;5114257;28;20442;-58
2022/01/25 02:42:50;;;;;;;66.93;52.15;;;;;;;3.19;100.00;103384.53;5114421;28;20040;-53
2022/01/25 02:45:16;;;;;;;67.32;50.58;;;;;;;3.21;100.00;103377.69;5113921;28;20027;-47
2022/01/25 02:50:26;;;;;;;69.18;51.92;;;;;;;3.03;100.00;103357.06;5114403;28;20084;-51
2022/01/25 02:52:52;;;;;;;65.35;50.28;;;;;;;2.73;100.00;103303.84;5112923;28;20035;-53
2022/01/25 02:55:18;;;;;;;66.82;51.78;;;;;;;3.21;100.00;103398.53;5113911;28;20397;-55
2022/01/25 02:57:47;;;;;;;70.10;53.38;;;;;;;2.90;100.00;103336.59;5113334;28;20091;-55
2022/01/25 03:00:15;;;;;;;68.20;51.05;;;;;;;3.20;100.00;103392.44;5113408;28;20056;-54
2022/01/25 03:02:40;;;;;;;64.22;50.20;;;;;;;3.21;100.00;103407.19;5112563;28;20035;-56
2022/01/25 03:05:06;;;;;;;70.70;53.20;;;;;;;3.10;100.00;103377.28;5113868;28;20395;-56
2022/01/25 03:07:33;;;;;;;65.47;50.47;;;;;;;2.76;100.00;103314.38;5113339;28;20185;-52
2022/01/25 03:10:00;;;;;;;67.55;50.72;;;;;;;3.21;100.00;103398.53;5112496;28;20110;-49
2022/01/25 03:12:37;;;;;;;68.53;52.42;;;;;;;3.09;100.00;103388.53;5113404;28;20027;-51
2022/01/25 03:15:26;;;;;;;67.55;50.58;;;;;;;3.22;100.00;103403.78;5113712;28;20336;-50
2022/01/25 03:17:59;;;;;;;68.70;51.38;;;;;;;3.24;100.00;103409.91;5113555;28;20037;-51
2022/01/25 03:20:47;;;;;;;69.88;50.75;;;;;;;3.24;100.00;103407.31;5113366;28;20027;-53
2022/01/25 03:23:20;;;;;;;71.82;52.40;;;;;;;3.07;100.00;103379.75;5113388;28;20390;-52
2022/01/25 03:25:48;;;;;;;71.53;52.33;;;;;;;3.20;100.00;103402.84;5113337;28;20035;-54
2022/01/25 03:28:15;;;;;;;69.45;53.10;;;;;;;3.05;100.00;103360.59;5112141;28;20076;-52
2022/01/25 03:30:40;;;;;;;71.68;53.28;;;;;;;3.26;100.00;103407.38;5094885;28;20113;-52
2022/01/25 03:33:05;;;;;;;73.10;53.38;;;;;;;2.95;100.00;103327.25;5113098;28;20104;-47
2022/01/25 03:35:31;;;;;;;70.68;52.40;;;;;;;3.25;100.00;103379.56;5112958;27;20042;-56
2022/01/25 03:37:56;;;;;;;70.03;52.15;;;;;;;3.23;100.00;103387.34;5113129;28;20031;-53
2022/01/25 03:40:21;;;;;;;69.40;51.90;;;;;;;3.14;100.00;103365.28;5111705;28;20039;-55
2022/01/25 03:42:48;;;;;;;72.05;52.55;;;;;;;3.25;100.00;103383.06;5113193;28;20097;-52
2022/01/25 03:45:19;;;;;;;68.43;51.95;;;;;;;3.29;100.00;103390.19;5112926;28;20070;-54
2022/01/25 03:47:46;;;;;;;66.72;50.33;;;;;;;3.26;100.00;103382.25;5111497;28;20056;-53
2022/01/25 03:50:11;;;;;;;68.45;52.63;;;;;;;2.83;100.00;103298.19;5107295;28;20475;-51
2022/01/25 03:52:38;;;;;;;68.45;51.30;;;;;;;3.28;100.00;103391.00;5092498;28;20081;-50
2022/01/25 03:55:05;;;;;;;69.30;51.50;;;;;;;2.88;100.00;103308.75;5091259;28;20035;-58
2022/01/25 03:57:30;;;;;;;69.63;51.30;;;;;;;3.04;100.00;103340.59;5092405;28;20039;-53
2022/01/25 04:00:00;;;;;;;69.97;51.28;;;;;;;3.27;100.00;103377.91;5092046;28;20040;-57
2022/01/25 04:02:28;;;;;;;62.30;48.67;;;;;;;2.89;100.00;103300.13;5074816;28;20032;-53
2022/01/25 04:04:56;;;;;;;67.93;50.47;;;;;;;3.32;100.00;103379.88;5092501;28;20043;-53
2022/01/25 04:07:29;;;;;;;65.05;49.17;;;;;;;3.32;100.00;103382.47;5092480;28;20506;-55
2022/01/25 04:09:54;;;;;;;63.65;47.47;;;;;;;3.32;100.00;103389.41;5092299;28;20471;-53
2022/01/25 04:12:20;;;;;;;61.65;47.38;;;;;;;2.94;100.00;103314.19;5092228;28;20032;-55
2022/01/25 04:14:45;;;;;;;62.83;48.10;;;;;;;3.31;100.00;103390.22;5092184;28;20122;-50
2022/01/25 04:17:13;;;;;;;62.40;47.35;;;;;;;3.28;100.00;103371.88;5091735;28;20039;-54
2022/01/25 04:19:45;;;;;;;60.78;46.90;;;;;;;3.27;100.00;103368.38;5091722;28;20442;-54
2022/01/25 04:24:56;;;;;;;60.42;46.25;;;;;;;3.29;100.00;103374.56;5091975;28;20093;-53
2022/01/25 04:27:25;;;;;;;63.55;48.20;;;;;;;3.24;100.00;103363.06;5091813;28;20481;-53
2022/01/25 04:29:51;;;;;;;61.15;47.17;;;;;;;3.33;100.00;103367.72;5090618;28;20048;-52
2022/01/25 04:32:17;;;;;;;53.65;43.08;;;;;;;3.20;100.00;103342.09;5092163;28;20564;-55
2022/01/25 04:34:46;;;;;;;61.97;47.42;;;;;;;3.19;100.00;103353.31;5090922;28;20024;-51
2022/01/25 04:50:58;;;;;;;59.03;46.03;;;;;;;3.28;100.00;103361.47;5091684;28;20047;-52
2022/01/25 04:58:58;;;;;;;64.85;47.92;;;;;;;3.30;100.00;103350.28;5062329;28;20452;-53
2022/01/25 05:01:23;;;;;;;64.15;48.97;;;;;;;3.01;100.00;103305.78;5091508;28;20399;-52
2022/01/25 05:03:57;;;;;;;67.72;51.63;;;;;;;3.32;100.00;103358.16;5091802;28;20055;-54
2022/01/25 05:06:23;;;;;;;64.70;50.15;;;;;;;3.30;100.00;103358.09;5091908;28;20131;-54
2022/01/25 05:08:53;;;;;;;64.65;47.42;;;;;;;3.32;100.00;103355.56;5090423;28;20060;-54
2022/01/25 05:16:30;;;;;;;60.08;47.67;;;;;;;2.82;100.00;103271.28;5090661;28;20067;-51
2022/01/25 05:19:10;;;;;;;66.93;49.60;;;;;;;3.29;100.00;103340.72;5091672;28;20035;-54
2022/01/25 05:24:20;;;;;;;62.30;46.58;;;;;;;3.28;100.00;103340.63;5091452;28;20089;-54
2022/01/25 05:26:45;;;;;;;59.97;47.08;;;;;;;3.29;100.00;103342.44;5091284;28;20028;-55
2022/01/25 05:29:10;;;;;;;64.20;48.03;;;;;;;3.18;100.00;103322.94;5092773;28;20070;-52
2022/01/25 05:34:49;;;;;;;62.60;47.45;;;;;;;2.78;100.00;103261.59;5093963;28;20506;-54
2022/01/25 05:37:23;;;;;;;59.80;45.50;;;;;;;3.29;100.00;103360.66;5093464;28;20037;-54
2022/01/25 05:39:49;;;;;;;59.53;46.05;;;;;;;3.28;100.00;103349.34;5093585;28;20501;-52
2022/01/25 05:47:19;;;;;;;61.15;47.28;;;;;;;2.82;100.00;103278.19;5093003;28;20474;-55
2022/01/25 05:49:45;;;;;;;63.47;48.53;;;;;;;2.78;100.00;103264.19;5093044;28;20062;-50
2022/01/25 05:52:11;;;;;;;65.85;49.83;;;;;;;3.09;100.00;103326.06;5092543;28;20483;-52
2022/01/25 05:54:38;;;;;;;66.53;48.63;;;;;;;3.29;100.00;103355.44;5093236;28;20034;-54
2022/01/25 05:57:04;;;;;;;63.78;50.10;;;;;;;2.94;100.00;103294.28;5093397;28;20032;-54
2022/01/25 05:59:29;;;;;;;58.65;46.15;;;;;;;3.30;100.00;103365.00;5093032;28;20387;-53
2022/01/25 06:01:55;;;;;;;60.38;47.60;;;;;;;3.29;100.00;103360.66;5094266;28;20132;-52
2022/01/25 06:04:23;;;;;;;63.78;49.53;;;;;;;3.21;100.00;103349.94;5094733;28;20112;-52
2022/01/25 06:06:50;;;;;;;64.75;49.38;;;;;;;2.80;100.00;103283.31;5094627;28;20530;-47
2022/01/25 06:09:16;;;;;;;55.72;45.50;;;;;;;3.28;100.00;103369.28;5093161;28;20038;-52
2022/01/25 06:11:41;;;;;;;53.67;43.67;;;;;;;2.88;100.00;103311.34;5094234;28;20048;-52
2022/01/25 06:14:06;;;;;;;57.10;45.63;;;;;;;3.29;100.00;103371.94;5093357;28;20484;-53
2022/01/25 06:16:32;;;;;;;54.28;43.78;;;;;;;2.78;100.00;103281.50;5094386;28;20036;-54
2022/01/25 06:18:58;;;;;;;55.80;44.20;;;;;;;3.29;100.00;103369.34;5093857;28;20028;-54
2022/01/25 06:21:24;;;;;;;59.75;45.83;;;;;;;3.27;100.00;103365.78;5075123;28;20039;-53
2022/01/25 06:23:50;;;;;;;60.50;46.72;;;;;;;3.26;100.00;103370.94;5077367;28;20028;-52
2022/01/25 06:26:16;;;;;;;57.47;44.80;;;;;;;2.88;100.00;103293.16;5094136;28;20494;-53
2022/01/25 06:28:41;;;;;;;59.80;47.65;;;;;;;3.01;100.00;103345.69;5094247;28;20040;-52
2022/01/25 06:31:08;;;;;;;64.00;48.83;;;;;;;3.28;100.00;103374.47;5094121;28;20383;-54
2022/01/25 06:33:33;;;;;;;60.63;47.40;;;;;;;3.29;100.00;103371.06;5090982;28;20032;-54
2022/01/25 06:35:59;;;;;;;65.05;48.60;;;;;;;3.29;100.00;103366.75;5087671;28;20063;-52
2022/01/25 06:38:26;;;;;;;56.47;43.13;;;;;;;3.25;100.00;103372.66;5077263;28;20476;-52
2022/01/25 06:40:52;;;;;;;57.97;45.67;;;;;;;3.30;100.00;103378.91;5072707;28;20044;-54
2022/01/25 06:43:17;;;;;;;56.85;45.70;;;;;;;3.31;100.00;103379.81;5073568;28;20089;-56
2022/01/25 06:45:45;;;;;;;60.25;47.03;;;;;;;3.19;100.00;103362.00;5072012;28;20040;-56
2022/01/25 06:48:11;;;;;;;57.30;45.83;;;;;;;3.32;100.00;103389.41;5073280;28;20041;-50
2022/01/25 06:50:36;;;;;;;63.00;48.70;;;;;;;3.26;100.00;103373.53;5071996;28;20468;-55
2022/01/25 06:53:01;;;;;;;62.95;48.85;;;;;;;3.32;100.00;103378.97;5071978;28;20043;-53
2022/01/25 06:55:27;;;;;;;59.65;46.88;;;;;;;2.84;100.00;103298.22;5074073;28;20036;-54
2022/01/25 06:57:52;;;;;;;63.25;47.60;;;;;;;2.74;100.00;103280.50;5073033;28;20434;-50
2022/01/25 07:00:23;;;;;;;60.67;46.10;;;;;;;3.23;100.00;103381.25;5074435;28;20037;-51
2022/01/25 07:02:48;;;;;;;59.40;46.63;;;;;;;2.84;100.00;103307.75;5084250;28;20456;-50
2022/01/25 07:05:14;;;;;;;62.08;47.08;;;;;;;3.24;100.00;103383.88;5068115;28;20533;-56
2022/01/25 07:07:40;;;;;;;63.13;47.92;;;;;;;2.87;100.00;103313.06;5072917;28;20032;-54
2022/01/25 07:10:07;;;;;;;64.85;48.08;;;;;;;2.98;100.00;103329.09;5081539;28;20036;-54
2022/01/25 07:12:32;;;;;;;63.97;49.17;;;;;;;3.30;100.00;103404.94;5092969;28;20032;-50
2022/01/25 07:14:57;;;;;;;59.80;47.90;;;;;;;3.21;100.00;103382.91;5090612;28;20040;-53
2022/01/25 07:17:23;;;;;;;60.08;46.67;;;;;;;3.20;100.00;103375.91;5072594;28;20063;-53
2022/01/25 07:19:48;;;;;;;64.22;47.10;;;;;;;2.93;100.00;103320.22;5075672;28;20079;-51
2022/01/25 07:22:14;;;;;;;62.63;48.50;;;;;;;3.31;100.00;103388.50;5091206;28;20089;-54
2022/01/25 07:24:40;;;;;;;63.65;48.40;;;;;;;3.29;100.00;103391.88;5076077;28;20032;-54
2022/01/25 07:27:05;;;;;;;61.83;48.60;;;;;;;3.22;100.00;103376.84;5072448;28;20111;-53
2022/01/25 07:29:31;;;;;;;69.57;49.80;;;;;;;3.31;100.00;103405.84;5070946;28;20039;-52
2022/01/25 07:31:56;;;;;;;69.43;51.80;;;;;;;3.24;100.00;103396.91;5071612;28;20090;-56
2022/01/25 07:34:22;;;;;;;73.07;51.42;;;;;;;2.81;100.00;103315.44;5072693;28;20437;-54
2022/01/25 07:36:47;;;;;;;69.60;51.80;;;;;;;3.30;100.00;103417.06;5087461;28;20044;-54
2022/01/25 07:39:13;;;;;;;69.10;50.45;;;;;;;3.10;100.00;103360.75;5092324;28;20032;-54
2022/01/25 07:41:39;;;;;;;60.15;47.50;;;;;;;2.79;100.00;103317.09;5091299;28;20028;-50
2022/01/25 07:44:05;;;;;;;69.47;49.58;;;;;;;3.24;100.00;103396.91;5092614;28;20399;-53
2022/01/25 07:46:31;;;;;;;65.28;49.13;;;;;;;2.76;100.00;103303.97;5084147;28;20048;-55
2022/01/25 07:48:57;;;;;;;67.43;48.83;;;;;;;3.32;100.00;103403.31;5062741;28;20055;-52
2022/01/25 07:51:26;;;;;;;69.45;52.13;;;;;;;3.34;100.00;103387.72;5070820;28;20170;-52
2022/01/25 07:53:52;;;;;;;62.20;46.03;;;;;;;2.84;100.00;103305.13;5073015;28;20028;-50
2022/01/25 07:56:17;;;;;;;61.03;47.03;;;;;;;3.02;100.00;103337.06;5072572;28;20039;-53
2022/01/25 07:58:42;;;;;;;65.25;50.10;;;;;;;2.96;100.00;103318.63;5073279;28;20398;-50
2022/01/25 08:01:08;;;;;;;63.75;49.90;;;;;;;3.32;100.00;103381.59;5072010;28;20052;-56
2022/01/25 08:03:33;;;;;;;72.40;52.38;;;;;;;2.88;100.00;103308.75;5071991;28;20492;-51
2022/01/25 08:05:59;;;;;;;71.75;51.55;;;;;;;3.25;100.00;103380.47;5073178;28;20639;-55
2022/01/25 08:08:24;;;;;;;69.03;51.40;;;;;;;3.23;100.00;103368.22;5090799;28;20038;-56
2022/01/25 08:10:49;;;;;;;68.07;50.13;;;;;;;2.96;100.00;103328.13;5090499;28;20040;-54
2022/01/25 08:13:15;;;;;;;72.07;52.30;;;;;;;3.31;100.00;103383.28;5092295;28;20344;-51
2022/01/25 08:15:40;;;;;;;68.40;50.05;;;;;;;3.37;100.00;103393.94;5089275;28;20036;-51
2022/01/25 08:18:05;;;;;;;67.43;50.00;;;;;;;3.38;100.00;103380.09;5090857;28;20068;-54
2022/01/25 08:20:31;;;;;;;63.30;47.05;;;;;;;3.44;100.00;103382.06;5091859;28;20032;-55
2022/01/25 08:22:57;;;;;;;68.63;49.92;;;;;;;3.46;100.00;103390.78;5091865;28;20487;-54
2022/01/25 08:25:22;;;;;;;66.03;49.83;;;;;;;3.00;100.00;103299.72;5086790;28;20032;-54
2022/01/25 08:27:48;;;;;;;68.05;50.22;;;;;;;3.42;100.00;103373.28;5091958;28;20040;-52
2022/01/25 08:30:14;;;;;;;65.57;48.95;;;;;;;3.48;100.00;103378.72;5079920;28;20033;-53
2022/01/25 08:32:40;;;;;;;63.75;47.90;;;;;;;3.01;100.00;103285.84;5071740;28;20036;-52
2022/01/25 08:35:06;;;;;;;68.85;50.88;;;;;;;3.54;100.00;103380.66;5079756;28;20089;-53
2022/01/25 08:37:31;;;;;;;67.20;51.63;;;;;;;3.53;100.00;103371.97;5091394;28;20097;-56
2022/01/25 08:39:57;;;;;;;64.72;48.72;;;;;;;3.54;100.00;103384.16;5084435;28;20135;-56
2022/01/25 08:42:22;;;;;;;71.32;51.72;;;;;;;3.58;100.00;103382.53;5070424;28;20040;-52
2022/01/25 08:44:48;;;;;;;67.78;49.65;;;;;;;3.55;100.00;103365.09;5075885;28;20097;-54
2022/01/25 08:47:14;;;;;;;66.03;50.85;;;;;;;3.18;100.00;103307.31;5091824;28;20119;-52
2022/01/25 08:49:39;;;;;;;70.25;51.55;;;;;;;3.23;100.00;103316.16;5088916;28;20035;-52
2022/01/25 08:52:05;;;;;;;66.28;48.92;;;;;;;3.63;100.00;103384.47;5090412;28;20391;-54
2022/01/25 08:54:31;;;;;;;65.65;49.03;;;;;;;3.61;100.00;103387.88;5090366;28;20043;-51
2022/01/25 08:56:57;;;;;;;68.68;52.33;;;;;;;3.55;100.00;103372.03;5072605;28;20044;-51
2022/01/25 08:59:22;;;;;;;67.30;51.15;;;;;;;3.65;100.00;103384.56;5076566;28;20045;-53
2022/01/25 09:01:48;;;;;;;73.88;51.72;;;;;;;3.16;100.00;103299.44;5087120;28;20048;-53
2022/01/25 09:04:13;;;;;;;68.93;49.92;;;;;;;3.66;100.00;103388.91;5091697;28;20410;-52
2022/01/25 09:06:39;;;;;;;63.63;48.40;;;;;;;3.44;100.00;103357.72;5095527;28;20036;-52
2022/01/25 09:09:07;;;;;;;69.10;49.60;;;;;;;3.68;100.00;103403.75;5093182;28;20110;-50
2022/01/25 09:11:34;;;;;;;67.10;50.25;;;;;;;3.31;100.00;103336.44;5095296;28;20035;-53
2022/01/25 09:14:00;;;;;;;68.40;50.00;;;;;;;3.71;100.00;103393.44;5089543;28;20036;-52
2022/01/25 09:16:25;;;;;;;70.28;53.75;;;;;;;3.62;100.00;103371.41;5074324;28;20040;-54
2022/01/25 09:18:51;;;;;;;73.72;54.60;;;;;;;3.73;100.00;103394.41;5079099;28;20051;-56
2022/01/25 09:21:17;;;;;;;69.72;52.92;;;;;;;3.77;100.00;103400.59;5074259;28;20393;-54
2022/01/25 09:23:42;;;;;;;69.82;51.35;;;;;;;3.79;100.00;103402.47;5075035;28;20055;-53
2022/01/25 09:26:08;;;;;;;70.53;52.33;;;;;;;3.80;100.00;103408.53;5073730;28;20032;-56
2022/01/25 09:28:33;;;;;;;66.70;50.00;;;;;;;3.78;100.00;103398.06;5074542;28;20059;-54
2022/01/25 09:30:58;;;;;;;69.18;52.58;;;;;;;3.83;100.00;103403.44;5073526;28;20142;-55
2022/01/25 09:33:25;;;;;;;72.28;52.20;;;;;;;3.78;100.00;103400.66;5074715;28;20040;-52
2022/01/25 09:35:52;;;;;;;67.63;50.50;;;;;;;3.77;100.00;103396.28;5074672;28;20032;-53
2022/01/25 09:38:18;;;;;;;71.22;51.80;;;;;;;3.84;100.00;103416.53;5074772;28;20089;-53
2022/01/25 09:40:44;;;;;;;65.45;50.05;;;;;;;3.81;100.00;103410.31;5073547;28;20040;-53
2022/01/25 09:43:10;;;;;;;70.32;50.80;;;;;;;3.84;100.00;103428.66;5074939;28;20063;-56
2022/01/25 09:45:36;;;;;;;69.40;52.38;;;;;;;3.86;100.00;103413.97;5074803;28;20067;-50
2022/01/25 09:48:04;;;;;;;67.97;51.63;;;;;;;3.87;100.00;103423.56;5074621;28;20036;-51
2022/01/25 09:50:30;;;;;;;67.30;49.63;;;;;;;3.89;100.00;103441.03;5089739;28;20421;-54
2022/01/25 09:52:56;;;;;;;68.15;51.10;;;;;;;3.82;100.00;103402.53;5074688;28;20051;-55
2022/01/25 09:55:23;;;;;;;68.35;51.42;;;;;;;3.55;100.00;103348.56;5074484;28;20610;-54
2022/01/25 09:57:49;;;;;;;68.15;50.47;;;;;;;3.97;100.00;103436.06;5073086;28;20510;-55
2022/01/25 10:00:19;;;;;;;70.70;51.78;;;;;;;3.59;100.00;103360.91;5089813;28;20025;-51
2022/01/25 10:02:54;;;;;;;70.77;50.63;;;;;;;4.02;100.00;103431.03;5074206;28;20045;-52
2022/01/25 10:05:23;;;;;;;69.30;51.05;;;;;;;4.05;100.00;103431.16;5074570;28;20029;-53
2022/01/25 10:08:06;;;;;;;68.15;50.97;;;;;;;3.96;100.00;103413.47;5074404;28;20043;-55
2022/01/25 10:10:34;;;;;;;69.47;51.17;;;;;;;3.47;100.00;103337.00;5074309;28;20043;-56
2022/01/25 10:13:38;;;;;;;67.40;49.65;;;;;;;4.05;100.00;103445.06;5073995;28;20115;-55
2022/01/25 10:16:10;;;;;;;67.22;49.30;;;;;;;4.05;100.00;103452.91;5071592;28;20044;-54
2022/01/25 10:18:53;;;;;;;65.45;49.60;;;;;;;3.61;100.00;103374.84;5073592;28;20494;-54
2022/01/25 10:21:24;;;;;;;65.22;50.10;;;;;;;4.08;100.00;103446.91;5070835;28;20028;-53
2022/01/25 10:24:11;;;;;;;68.18;51.30;;;;;;;4.03;100.00;103446.72;5073738;28;20087;-49
2022/01/25 10:26:52;;;;;;;68.93;50.75;;;;;;;4.01;100.00;103444.88;5073418;28;20036;-53
2022/01/25 10:29:25;;;;;;;66.70;49.55;;;;;;;4.00;100.00;103451.81;5089410;28;20032;-52
2022/01/25 10:31:58;;;;;;;73.15;51.97;;;;;;;3.55;100.00;103369.41;5073759;28;20036;-52
2022/01/25 10:34:37;;;;;;;71.10;51.58;;;;;;;3.67;100.00;103382.88;5072341;28;20036;-55
2022/01/25 10:37:15;;;;;;;69.13;50.42;;;;;;;4.00;100.00;103461.38;5072408;28;20403;-54
2022/01/25 10:39:42;;;;;;;73.60;53.33;;;;;;;4.04;100.00;103458.94;5073517;28;20032;-52
2022/01/25 10:42:17;;;;;;;76.15;53.58;;;;;;;3.89;100.00;103440.13;5073569;28;20020;-52
2022/01/25 10:44:47;;;;;;;73.55;53.60;;;;;;;3.85;100.00;103457.34;5072025;28;20033;-51
2022/01/25 10:47:13;;;;;;;73.63;52.55;;;;;;;3.88;100.00;103454.88;5073716;28;20036;-54
2022/01/25 10:49:46;;;;;;;71.35;52.92;;;;;;;3.92;100.00;103455.88;5073269;28;20491;-54
2022/01/25 10:52:11;;;;;;;72.68;52.10;;;;;;;3.95;100.00;103455.97;5071962;28;20054;-52
2022/01/25 10:54:41;;;;;;;73.50;52.45;;;;;;;3.92;100.00;103443.75;5072163;28;20036;-56
2022/01/25 10:57:18;;;;;;;75.28;53.78;;;;;;;3.58;100.00;103370.41;5072953;28;20099;-55
2022/01/25 10:59:59;;;;;;;73.05;51.25;;;;;;;3.85;100.00;103410.47;5055301;28;20047;-54
2022/01/25 11:02:24;;;;;;;68.63;49.50;;;;;;;4.02;100.00;103441.47;5071658;28;20052;-51
2022/01/25 11:04:52;;;;;;;73.53;51.08;;;;;;;4.10;100.00;103453.03;5071602;28;20078;-56
2022/01/25 11:07:17;;;;;;;73.38;53.22;;;;;;;3.66;100.00;103379.38;5071787;28;20495;-52
2022/01/25 11:09:46;;;;;;;72.63;50.70;;;;;;;3.72;100.00;103386.53;5071566;28;20090;-52
2022/01/25 11:12:15;;;;;;;76.82;54.42;;;;;;;4.11;100.00;103457.44;5071994;28;20032;-55
2022/01/25 11:14:53;;;;;;;71.40;52.05;;;;;;;4.12;100.00;103470.50;5073080;28;20028;-50
2022/01/25 11:17:23;;;;;;;77.18;53.47;;;;;;;4.14;100.00;103452.34;5056504;28;20031;-52
2022/01/25 11:19:48;;;;;;;71.45;52.13;;;;;;;4.13;100.00;103446.22;5072691;28;20036;-54
2022/01/25 11:22:19;;;;;;;75.88;54.13;;;;;;;4.15;100.00;103464.50;5071354;28;20043;-54
2022/01/25 11:24:49;;;;;;;75.93;53.00;;;;;;;3.60;100.00;103360.03;5072839;28;20090;-54
2022/01/25 11:27:14;;;;;;;76.28;54.38;;;;;;;3.65;100.00;103361.97;5072473;28;20030;-52
2022/01/25 11:29:41;;;;;;;71.45;51.40;;;;;;;4.15;100.00;103441.03;5071595;28;20032;-53
2022/01/25 11:32:10;;;;;;;75.35;52.80;;;;;;;4.15;100.00;103438.44;5072759;28;20043;-53
2022/01/25 11:34:36;;;;;;;73.05;52.42;;;;;;;4.13;100.00;103421.88;5071581;28;20024;-54
2022/01/25 11:37:05;;;;;;;77.75;53.10;;;;;;;4.22;100.00;103449.16;5071500;28;20082;-54
2022/01/25 11:39:31;;;;;;;71.68;52.80;;;;;;;4.25;100.00;103443.16;5072482;28;20476;-54
2022/01/25 11:42:20;;;;;;;76.53;52.97;;;;;;;4.27;100.00;103431.06;5072713;28;20062;-55
2022/01/25 11:44:50;;;;;;;76.72;52.35;;;;;;;3.99;100.00;103382.31;5071396;28;20119;-50
2022/01/25 11:47:17;;;;;;;75.80;53.90;;;;;;;3.83;100.00;103353.94;5072165;28;20032;-50
2022/01/25 11:49:54;;;;;;;72.78;51.17;;;;;;;4.25;100.00;103431.03;5072591;28;20039;-54
2022/01/25 11:52:21;;;;;;;78.60;52.53;;;;;;;4.27;100.00;103426.72;5072440;28;20025;-52
2022/01/25 11:54:49;;;;;;;71.50;51.75;;;;;;;4.31;100.00;103428.63;5070875;28;20434;-56
2022/01/25 11:57:19;;;;;;;77.35;52.40;;;;;;;2.81;100.00;103170.66;5072473;28;20036;-55
2022/01/25 11:59:52;;;;;;;77.87;54.60;;;;;;;4.38;100.00;103424.47;5071829;28;20028;-53
2022/01/25 12:02:38;;;;;;;74.45;50.30;;;;;;;4.39;100.00;103429.75;5071895;28;20087;-53
2022/01/25 12:05:09;;;;;;;76.32;53.92;;;;;;;4.24;100.00;103397.06;5072119;28;20487;-53
2022/01/25 12:07:43;;;;;;;73.45;53.85;;;;;;;4.34;100.00;103420.91;5071943;28;20390;-53
2022/01/25 12:10:37;;;;;;;76.10;53.40;;;;;;;4.30;100.00;103416.41;5072037;28;20039;-53
2022/01/25 12:13:08;;;;;;;72.97;52.88;;;;;;;3.98;100.00;103360.56;5067762;28;20087;-52
2022/01/25 12:15:34;;;;;;;77.07;54.92;;;;;;;3.46;100.00;103251.91;5072091;28;20116;-52
2022/01/25 12:17:59;;;;;;;76.85;54.30;;;;;;;4.29;100.00;103400.72;5070633;28;20116;-53
2022/01/25 12:20:25;;;;;;;72.93;51.80;;;;;;;4.30;100.00;103403.38;5070264;28;20039;-53
2022/01/25 12:23:16;;;;;;;77.65;52.95;;;;;;;4.31;100.00;103399.06;5072371;28;20036;-53
2022/01/25 12:26:18;;;;;;;;;;;;;;;4.37;100.00;103401.88;5072473;28;20021;-56
2022/01/25 12:28:38;;;;;;;73.00;50.55;;;;;;;4.40;100.00;103401.97;5069968;28;19912;-52
2022/01/25 12:31:14;;;;;;;75.18;52.85;;;;;;;4.39;100.00;103416.72;5070551;28;20514;-53
2022/01/25 12:33:40;;;;;;;75.55;51.97;;;;;;;4.34;100.00;103399.16;5070566;28;20268;-53
2022/01/25 12:36:08;;;;;;;76.78;53.20;;;;;;;4.05;100.00;103358.19;5054201;28;20032;-54
2022/01/25 12:38:43;;;;;;;75.45;53.60;;;;;;;4.35;100.00;103400.94;5072070;28;20036;-53
2022/01/25 12:41:12;;;;;;;76.57;53.08;;;;;;;3.95;100.00;103304.84;5075833;28;20097;-53
2022/01/25 12:43:43;;;;;;;72.40;51.72;;;;;;;4.39;100.00;103390.66;5075798;28;20033;-52
2022/01/25 12:46:13;;;;;;;76.47;52.97;;;;;;;4.38;100.00;103377.53;5076036;28;20036;-54
2022/01/25 12:48:44;;;;;;;76.13;52.33;;;;;;;4.37;100.00;103371.47;5075815;28;20029;-54
2022/01/25 12:51:11;;;;;;;;;;;;;;;4.39;100.00;103361.06;5076111;28;20029;-52
2022/01/25 12:53:39;;;;;;;73.15;51.08;;;;;;;4.46;100.00;103363.06;5076828;28;19923;-54
2022/01/25 12:56:12;;;;;;;72.90;51.60;;;;;;;4.46;100.00;103365.66;5075672;28;20036;-54
2022/01/25 12:58:38;;;;;;;72.97;51.20;;;;;;;4.39;100.00;103377.59;5075763;28;20395;-53